Time;durP1;ratioP1;P1;durP2;ratioP2;P2;SDS_P1;SDS_P2;PMS_P1;PMS_P2;Temp;Humidity;BMP_temperature;BMP_pressure;BME280_temperature;BME280_humidity;BME280_pressure;Samples;Min_cycle;Max_cycle;Signal;HPM_P1;HPM_P2
2021/12/11 00:02:18;;;;;;;76.45;39.75;;;;;;;;;;5029965;28;20100;-87
2021/12/11 00:04:45;;;;;;;72.50;39.25;;;;;;;;;;5029900;28;20033;-87
2021/12/11 00:07:14;;;;;;;72.57;39.40;;;;;;;;;;5011650;28;20469;-87
2021/12/11 00:09:42;;;;;;;75.00;40.17;;;;;;;;;;5012226;28;20108;-87
2021/12/11 00:12:16;;;;;;;73.63;41.22;;;;;;;;;;5029953;28;20049;-88
2021/12/11 00:14:43;;;;;;;79.90;41.25;;;;;;;;;;5029886;28;20100;-88
2021/12/11 00:17:10;;;;;;;74.75;39.33;;;;;;;;;;5030137;28;20029;-87
2021/12/11 00:19:40;;;;;;;81.72;38.08;;;;;;;;;;5029720;28;20401;-87
2021/12/11 00:22:10;;;;;;;78.50;39.50;;;;;;;;;;5029867;28;20021;-87
2021/12/11 00:24:36;;;;;;;76.47;38.13;;;;;;;;;;5038193;28;20407;-87
2021/12/11 00:27:06;;;;;;;78.80;40.58;;;;;;;;;;5030022;28;20531;-87
2021/12/11 00:29:32;;;;;;;70.03;38.00;;;;;;;;;;5029712;28;20119;-87
2021/12/11 00:32:01;;;;;;;76.20;38.85;;;;;;;;;;5011867;28;20025;-87
2021/12/11 00:34:26;;;;;;;76.57;38.42;;;;;;;;;;5011859;28;20374;-87
2021/12/11 00:36:54;;;;;;;77.25;40.15;;;;;;;;;;5011850;28;20026;-87
2021/12/11 00:39:20;;;;;;;95.32;47.25;;;;;;;;;;5029582;28;20116;-87
2021/12/11 00:41:52;;;;;;;101.85;46.13;;;;;;;;;;5029905;28;20485;-87
2021/12/11 00:44:17;;;;;;;76.07;38.78;;;;;;;;;;5029830;28;20025;-87
2021/12/11 00:46:42;;;;;;;86.78;40.95;;;;;;;;;;5011770;28;20500;-87
2021/12/11 00:49:12;;;;;;;89.05;41.70;;;;;;;;;;5029645;28;20028;-87
2021/12/11 00:51:37;;;;;;;88.57;42.63;;;;;;;;;;5011610;28;20436;-87
2021/12/11 00:54:03;;;;;;;77.03;39.35;;;;;;;;;;5031664;28;20033;-87
2021/12/11 00:56:30;;;;;;;79.07;41.00;;;;;;;;;;5029559;28;20044;-87
2021/12/11 00:58:56;;;;;;;73.57;39.05;;;;;;;;;;5029234;28;20064;-86
2021/12/11 01:01:24;;;;;;;79.60;41.25;;;;;;;;;;5029582;28;20048;-86
2021/12/11 01:03:51;;;;;;;85.72;40.83;;;;;;;;;;5029443;28;20026;-86
2021/12/11 01:06:20;;;;;;;75.18;38.67;;;;;;;;;;5029181;28;20029;-86
2021/12/11 01:08:51;;;;;;;77.75;40.75;;;;;;;;;;5011188;28;20033;-87
2021/12/11 01:11:20;;;;;;;72.10;37.65;;;;;;;;;;5011453;28;20029;-87
2021/12/11 01:13:59;;;;;;;85.15;43.50;;;;;;;;;;5029145;28;20101;-87
2021/12/11 01:16:24;;;;;;;77.18;37.67;;;;;;;;;;5011432;28;20397;-87
2021/12/11 01:18:55;;;;;;;85.53;40.17;;;;;;;;;;5033489;28;20033;-87
2021/12/11 01:24:14;;;;;;;79.75;38.92;;;;;;;;;;5033125;28;20268;-87
2021/12/11 01:26:47;;;;;;;79.75;39.17;;;;;;;;;;5033071;28;20029;-87
2021/12/11 01:29:13;;;;;;;73.07;37.15;;;;;;;;;;5021498;28;20014;-87
2021/12/11 01:31:38;;;;;;;78.15;37.22;;;;;;;;;;5033133;28;20087;-87
2021/12/11 01:34:04;;;;;;;66.18;36.35;;;;;;;;;;5032954;28;20021;-87
2021/12/11 01:36:30;;;;;;;80.78;38.78;;;;;;;;;;5032656;28;20056;-86
2021/12/11 01:38:57;;;;;;;83.32;39.40;;;;;;;;;;5014399;28;20056;-86
2021/12/11 01:41:23;;;;;;;82.90;39.60;;;;;;;;;;5014919;28;20021;-87
2021/12/11 01:43:56;;;;;;;71.60;34.03;;;;;;;;;;5014696;28;20049;-87
2021/12/11 01:46:22;;;;;;;73.07;37.28;;;;;;;;;;5014679;28;20025;-87
2021/12/11 01:48:50;;;;;;;84.47;39.67;;;;;;;;;;5032077;28;20496;-87
2021/12/11 01:51:17;;;;;;;80.95;40.63;;;;;;;;;;5014466;28;20052;-87
2021/12/11 01:53:46;;;;;;;74.65;37.05;;;;;;;;;;5032204;28;20021;-86
2021/12/11 01:56:14;;;;;;;76.55;39.92;;;;;;;;;;5032119;28;20025;-87
2021/12/11 01:58:41;;;;;;;73.07;36.58;;;;;;;;;;5014349;28;20104;-86
2021/12/11 02:01:09;;;;;;;78.05;37.42;;;;;;;;;;5032300;28;20112;-86
2021/12/11 02:03:35;;;;;;;83.70;39.22;;;;;;;;;;5032307;28;20037;-87
2021/12/11 02:06:01;;;;;;;73.25;37.33;;;;;;;;;;5034608;28;20025;-87
2021/12/11 02:08:29;;;;;;;78.28;37.65;;;;;;;;;;5036040;28;20025;-87
2021/12/11 02:10:56;;;;;;;70.82;37.33;;;;;;;;;;5032121;28;20029;-87
2021/12/11 02:13:35;;;;;;;78.20;38.15;;;;;;;;;;5014011;28;20040;-86
2021/12/11 02:16:01;;;;;;;75.45;36.47;;;;;;;;;;5014285;28;20079;-87
2021/12/11 02:18:34;;;;;;;67.65;34.60;;;;;;;;;;5014225;28;20112;-87
2021/12/11 02:21:18;;;;;;;75.28;38.47;;;;;;;;;;5032003;28;20520;-86
2021/12/11 02:23:44;;;;;;;77.53;38.90;;;;;;;;;;5014059;28;20064;-86
2021/12/11 02:26:12;;;;;;;74.70;36.22;;;;;;;;;;5031829;28;20048;-87
2021/12/11 02:28:39;;;;;;;81.72;39.05;;;;;;;;;;5013153;28;20049;-87
2021/12/11 02:31:08;;;;;;;85.72;40.72;;;;;;;;;;5031962;28;20025;-87
2021/12/11 02:33:38;;;;;;;80.40;40.55;;;;;;;;;;5013526;28;20116;-87
2021/12/11 02:36:10;;;;;;;78.25;38.75;;;;;;;;;;5017077;28;20025;-87
2021/12/11 02:38:47;;;;;;;80.45;37.42;;;;;;;;;;5013380;28;20163;-86
2021/12/11 02:41:19;;;;;;;75.53;36.75;;;;;;;;;;5031496;28;20044;-87
2021/12/11 02:44:04;;;;;;;87.70;40.22;;;;;;;;;;5031347;28;20408;-87
2021/12/11 02:46:36;;;;;;;85.55;41.63;;;;;;;;;;5012857;28;20548;-86
2021/12/11 02:49:04;;;;;;;80.95;38.17;;;;;;;;;;5013730;28;20040;-86
2021/12/11 02:51:36;;;;;;;86.78;40.20;;;;;;;;;;5013544;28;20032;-87
2021/12/11 02:54:09;;;;;;;88.25;41.70;;;;;;;;;;5031376;28;20079;-86
2021/12/11 02:56:36;;;;;;;81.82;39.80;;;;;;;;;;5031388;28;20041;-86
2021/12/11 02:59:07;;;;;;;85.18;42.13;;;;;;;;;;5031065;28;20028;-87
2021/12/11 03:01:34;;;;;;;84.07;38.95;;;;;;;;;;5031213;28;20578;-87
2021/12/11 03:04:19;;;;;;;91.90;40.55;;;;;;;;;;5034520;28;20025;-87
2021/12/11 03:06:47;;;;;;;86.65;40.75;;;;;;;;;;5031073;28;20040;-87
2021/12/11 03:09:16;;;;;;;96.90;41.95;;;;;;;;;;5031171;28;20025;-86
2021/12/11 03:11:41;;;;;;;90.18;42.47;;;;;;;;;;5013102;28;20032;-86
2021/12/11 03:14:12;;;;;;;83.20;37.85;;;;;;;;;;5013011;28;20017;-86
2021/12/11 03:16:39;;;;;;;87.10;40.08;;;;;;;;;;5012979;28;20021;-86
2021/12/11 03:19:05;;;;;;;90.03;38.78;;;;;;;;;;5030590;28;20044;-87
2021/12/11 03:21:31;;;;;;;90.10;39.65;;;;;;;;;;5030882;28;20107;-87
2021/12/11 03:23:57;;;;;;;90.25;39.95;;;;;;;;;;5030817;28;20144;-87
2021/12/11 03:26:22;;;;;;;92.65;42.47;;;;;;;;;;5030746;28;20028;-87
2021/12/11 03:28:47;;;;;;;84.63;38.13;;;;;;;;;;5030447;28;20021;-87
2021/12/11 03:31:13;;;;;;;84.32;38.30;;;;;;;;;;5012748;28;20119;-87
2021/12/11 03:33:41;;;;;;;93.70;41.95;;;;;;;;;;5030421;28;20199;-86
2021/12/11 03:36:07;;;;;;;84.00;42.83;;;;;;;;;;5020821;28;20021;-87
2021/12/11 03:38:33;;;;;;;94.05;41.08;;;;;;;;;;5015411;28;20022;-87
2021/12/11 03:40:58;;;;;;;83.47;39.92;;;;;;;;;;5030240;28;20044;-86
2021/12/11 03:43:24;;;;;;;86.20;36.28;;;;;;;;;;5030405;28;20108;-87
2021/12/11 03:45:52;;;;;;;85.38;37.95;;;;;;;;;;5012355;28;20032;-87
2021/12/11 03:48:20;;;;;;;95.80;37.00;;;;;;;;;;5012399;28;20486;-86
2021/12/11 03:50:46;;;;;;;75.80;37.28;;;;;;;;;;5012302;28;20639;-86
2021/12/11 03:53:12;;;;;;;76.93;36.35;;;;;;;;;;5012413;28;20140;-86
2021/12/11 03:55:39;;;;;;;86.10;41.38;;;;;;;;;;5012493;28;20021;-87
2021/12/11 03:58:06;;;;;;;93.70;39.47;;;;;;;;;;5030289;28;20029;-86
2021/12/11 04:00:37;;;;;;;90.05;39.65;;;;;;;;;;5012086;28;20033;-86
2021/12/11 04:03:06;;;;;;;90.33;41.90;;;;;;;;;;5030507;28;20026;-86
2021/12/11 04:05:33;;;;;;;79.30;35.60;;;;;;;;;;5035689;28;20424;-87
2021/12/11 04:07:59;;;;;;;85.47;41.03;;;;;;;;;;5030221;28;20541;-86
2021/12/11 04:10:27;;;;;;;90.55;41.55;;;;;;;;;;5012159;28;20117;-87
2021/12/11 04:12:53;;;;;;;92.85;40.10;;;;;;;;;;5029958;28;20018;-87
2021/12/11 04:15:18;;;;;;;86.95;37.80;;;;;;;;;;5012138;28;20039;-87
2021/12/11 04:17:43;;;;;;;83.10;37.03;;;;;;;;;;5012134;28;20029;-87
2021/12/11 04:20:11;;;;;;;94.68;39.33;;;;;;;;;;5029780;28;20053;-86
2021/12/11 04:22:37;;;;;;;95.55;39.72;;;;;;;;;;5012067;28;20108;-87
2021/12/11 04:25:04;;;;;;;91.72;39.38;;;;;;;;;;5029880;28;20522;-86
2021/12/11 04:27:29;;;;;;;93.22;42.40;;;;;;;;;;5011899;28;20634;-86
2021/12/11 04:29:55;;;;;;;90.10;41.00;;;;;;;;;;5011837;28;20025;-87
2021/12/11 04:32:21;;;;;;;99.15;44.00;;;;;;;;;;5013932;28;20473;-87
2021/12/11 04:34:47;;;;;;;101.65;44.47;;;;;;;;;;5013073;28;20021;-86
2021/12/11 04:37:17;;;;;;;101.43;43.85;;;;;;;;;;5029887;28;20033;-86
2021/12/11 04:39:45;;;;;;;96.65;43.13;;;;;;;;;;5011791;28;20057;-86
2021/12/11 04:42:42;;;;;;;99.95;42.80;;;;;;;;;;5011990;28;20017;-86
2021/12/11 04:44:59;;;;;;;102.28;44.08;;;;;;;;;;5028444;28;20038;-86
2021/12/11 04:47:33;;;;;;;101.03;43.28;;;;;;;;;;5029689;28;20447;-87
2021/12/11 04:50:04;;;;;;;95.68;42.83;;;;;;;;;;5029812;28;20498;-86
2021/12/11 04:52:34;;;;;;;94.30;42.80;;;;;;;;;;5031702;28;20029;-86
2021/12/11 04:55:29;;;;;;;97.28;44.28;;;;;;;;;;5033665;28;20044;-86
2021/12/11 05:00:49;;;;;;;98.38;40.75;;;;;;;;;;5033488;28;20037;-86
2021/12/11 05:06:21;;;;;;;91.30;39.85;;;;;;;;;;5033869;28;20025;-86
2021/12/11 05:11:34;;;;;;;94.63;40.88;;;;;;;;;;5033631;28;20168;-86
2021/12/11 05:14:00;;;;;;;91.38;40.35;;;;;;;;;;5033247;28;20452;-86
2021/12/11 05:16:25;;;;;;;88.43;41.63;;;;;;;;;;5033125;28;20048;-87
2021/12/11 05:18:51;;;;;;;82.82;37.30;;;;;;;;;;5033184;28;20025;-87
2021/12/11 05:21:17;;;;;;;90.93;42.85;;;;;;;;;;5033214;28;20045;-86
2021/12/11 05:23:42;;;;;;;83.32;38.88;;;;;;;;;;5033052;28;20021;-87
2021/12/11 05:26:08;;;;;;;85.00;42.25;;;;;;;;;;5032987;28;20102;-86
2021/12/11 05:28:33;;;;;;;90.90;40.55;;;;;;;;;;5015309;28;20057;-86
2021/12/11 05:31:01;;;;;;;84.03;39.92;;;;;;;;;;5014997;28;20464;-87
2021/12/11 05:33:26;;;;;;;86.05;37.88;;;;;;;;;;5033121;28;20021;-86
2021/12/11 05:35:52;;;;;;;79.30;37.13;;;;;;;;;;5042758;28;20022;-87
2021/12/11 05:38:18;;;;;;;82.53;36.75;;;;;;;;;;5032615;28;20026;-86
2021/12/11 05:40:45;;;;;;;88.47;38.25;;;;;;;;;;5014792;28;20046;-86
2021/12/11 05:43:11;;;;;;;87.43;38.53;;;;;;;;;;5032532;28;20021;-87
2021/12/11 05:45:36;;;;;;;79.93;37.08;;;;;;;;;;5032413;28;20060;-87
2021/12/11 05:48:02;;;;;;;80.57;36.70;;;;;;;;;;5032406;28;20021;-87
2021/12/11 05:50:30;;;;;;;82.82;36.75;;;;;;;;;;5032701;28;20029;-87
2021/12/11 05:52:56;;;;;;;82.93;36.95;;;;;;;;;;5032408;28;20041;-87
2021/12/11 05:55:22;;;;;;;88.30;37.92;;;;;;;;;;5032779;28;20106;-87
2021/12/11 05:57:53;;;;;;;83.10;34.90;;;;;;;;;;5014402;28;20541;-87
2021/12/11 06:00:20;;;;;;;86.28;39.17;;;;;;;;;;5032212;28;20401;-87
2021/12/11 06:02:45;;;;;;;72.82;36.50;;;;;;;;;;5031848;28;20018;-86
2021/12/11 06:05:10;;;;;;;86.65;41.15;;;;;;;;;;5031579;28;20516;-86
2021/12/11 06:07:37;;;;;;;79.50;36.97;;;;;;;;;;5024831;28;20021;-86
2021/12/11 06:10:08;;;;;;;89.43;41.22;;;;;;;;;;5032403;28;20029;-87
2021/12/11 06:12:33;;;;;;;87.53;37.92;;;;;;;;;;5032423;28;20031;-87
2021/12/11 06:14:58;;;;;;;93.32;40.60;;;;;;;;;;5032012;28;20219;-87
2021/12/11 06:17:26;;;;;;;91.00;39.60;;;;;;;;;;5032055;28;20018;-87
2021/12/11 06:19:53;;;;;;;99.57;39.00;;;;;;;;;;5014124;28;20064;-86
2021/12/11 06:22:20;;;;;;;102.72;44.90;;;;;;;;;;5014009;28;20028;-86
2021/12/11 06:24:45;;;;;;;75.38;35.42;;;;;;;;;;5031910;28;20426;-87
2021/12/11 06:27:10;;;;;;;90.55;38.97;;;;;;;;;;5013974;28;20120;-87
2021/12/11 06:29:36;;;;;;;93.18;40.50;;;;;;;;;;5031603;28;20032;-87
2021/12/11 06:32:01;;;;;;;100.78;41.88;;;;;;;;;;5014003;28;20025;-87
2021/12/11 06:34:26;;;;;;;90.30;41.35;;;;;;;;;;5013581;28;20025;-86
2021/12/11 06:36:52;;;;;;;82.78;37.78;;;;;;;;;;5013858;28;20025;-87
2021/12/11 06:39:20;;;;;;;93.05;40.55;;;;;;;;;;5031652;28;20033;-86
2021/12/11 06:41:50;;;;;;;77.35;36.05;;;;;;;;;;5042536;28;20109;-86
2021/12/11 06:44:15;;;;;;;87.07;39.88;;;;;;;;;;5013766;28;20049;-86
2021/12/11 06:46:41;;;;;;;81.03;37.95;;;;;;;;;;5013530;28;20060;-87
2021/12/11 06:49:07;;;;;;;80.80;36.78;;;;;;;;;;5031520;28;20035;-87
2021/12/11 06:51:32;;;;;;;79.03;34.65;;;;;;;;;;5013419;28;20068;-86
2021/12/11 06:54:03;;;;;;;92.50;38.58;;;;;;;;;;5031181;28;20025;-87
2021/12/11 06:56:28;;;;;;;107.80;40.80;;;;;;;;;;5031604;28;20037;-87
2021/12/11 06:58:54;;;;;;;81.63;35.80;;;;;;;;;;5031036;28;20029;-87
2021/12/11 07:01:21;;;;;;;74.32;35.58;;;;;;;;;;5013149;28;20060;-87
2021/12/11 07:03:46;;;;;;;76.82;33.63;;;;;;;;;;5013192;28;20021;-86
2021/12/11 07:06:12;;;;;;;78.82;38.15;;;;;;;;;;5013465;28;20036;-86
2021/12/11 07:08:39;;;;;;;76.00;34.33;;;;;;;;;;5040567;28;20048;-87
2021/12/11 07:11:05;;;;;;;86.93;37.47;;;;;;;;;;5037873;28;20029;-86
2021/12/11 07:13:30;;;;;;;84.38;36.60;;;;;;;;;;5013391;28;20022;-87
2021/12/11 07:15:56;;;;;;;70.47;34.85;;;;;;;;;;5012706;28;20017;-87
2021/12/11 07:18:22;;;;;;;73.40;34.72;;;;;;;;;;5012756;28;20022;-86
2021/12/11 07:20:47;;;;;;;83.90;36.95;;;;;;;;;;5030509;28;20060;-87
2021/12/11 07:23:13;;;;;;;119.22;42.25;;;;;;;;;;5030503;28;20024;-86
2021/12/11 07:25:43;;;;;;;77.82;35.20;;;;;;;;;;5012839;28;20017;-87
2021/12/11 07:28:10;;;;;;;105.10;42.13;;;;;;;;;;5030536;28;20022;-87
2021/12/11 07:30:37;;;;;;;111.88;41.50;;;;;;;;;;5030976;28;20681;-87
2021/12/11 07:33:04;;;;;;;91.75;38.80;;;;;;;;;;5012840;28;20104;-87
2021/12/11 07:35:30;;;;;;;96.35;41.42;;;;;;;;;;5030517;28;20022;-87
2021/12/11 07:37:55;;;;;;;101.43;39.78;;;;;;;;;;5030487;28;20358;-87
2021/12/11 07:40:22;;;;;;;92.00;39.33;;;;;;;;;;5012573;28;20371;-86
2021/12/11 07:42:48;;;;;;;81.30;37.05;;;;;;;;;;5030432;28;20033;-87
2021/12/11 07:45:13;;;;;;;76.07;36.17;;;;;;;;;;5030529;28;20026;-87
2021/12/11 07:47:39;;;;;;;82.25;37.10;;;;;;;;;;5012355;28;20076;-87
2021/12/11 07:50:04;;;;;;;80.63;36.38;;;;;;;;;;5015738;28;20048;-87
2021/12/11 07:52:29;;;;;;;83.75;39.88;;;;;;;;;;5030536;28;20021;-87
2021/12/11 07:54:55;;;;;;;71.28;34.35;;;;;;;;;;5030192;28;20555;-87
2021/12/11 07:57:20;;;;;;;75.80;35.60;;;;;;;;;;5030099;28;20021;-86
2021/12/11 07:59:45;;;;;;;75.90;35.97;;;;;;;;;;5030119;28;20474;-86
2021/12/11 08:02:10;;;;;;;93.07;39.10;;;;;;;;;;5030066;28;20025;-86
2021/12/11 08:04:36;;;;;;;72.53;34.58;;;;;;;;;;5030346;28;20026;-87
2021/12/11 08:07:01;;;;;;;72.85;35.92;;;;;;;;;;5011949;28;20044;-86
2021/12/11 08:09:26;;;;;;;78.15;38.05;;;;;;;;;;5030154;28;20355;-86
2021/12/11 08:11:52;;;;;;;81.68;37.88;;;;;;;;;;5012070;28;20028;-86
2021/12/11 08:14:18;;;;;;;77.50;37.30;;;;;;;;;;5012067;28;20025;-87
2021/12/11 08:16:46;;;;;;;80.03;39.22;;;;;;;;;;5035601;28;20025;-87
2021/12/11 08:19:12;;;;;;;67.25;35.17;;;;;;;;;;5029519;28;20091;-86
2021/12/11 08:21:37;;;;;;;105.75;42.42;;;;;;;;;;5011958;28;20156;-87
2021/12/11 08:24:05;;;;;;;81.88;39.38;;;;;;;;;;5011959;28;20108;-87
2021/12/11 08:26:31;;;;;;;78.82;37.65;;;;;;;;;;5011252;28;20018;-86
2021/12/11 08:28:56;;;;;;;114.15;47.50;;;;;;;;;;5011888;28;20083;-86
2021/12/11 08:31:22;;;;;;;95.38;43.22;;;;;;;;;;5029878;28;20030;-86
2021/12/11 08:33:49;;;;;;;75.25;37.45;;;;;;;;;;5011616;28;20071;-86
2021/12/11 08:36:14;;;;;;;75.57;37.03;;;;;;;;;;5008528;28;20116;-87
2021/12/11 08:38:41;;;;;;;96.43;40.08;;;;;;;;;;5023508;28;20104;-86
2021/12/11 08:41:09;;;;;;;89.68;39.78;;;;;;;;;;5029808;28;20048;-86
2021/12/11 08:43:35;;;;;;;92.82;40.20;;;;;;;;;;5010139;28;20500;-86
2021/12/11 08:46:27;;;;;;;74.03;36.70;;;;;;;;;;5026963;28;20029;-86
2021/12/11 08:48:49;;;;;;;81.78;38.28;;;;;;;;;;5006685;28;20037;-86
2021/12/11 08:51:17;;;;;;;73.50;36.10;;;;;;;;;;5006335;28;20030;-86
2021/12/11 08:53:42;;;;;;;68.65;33.42;;;;;;;;;;5016386;28;20016;-87
2021/12/11 08:56:09;;;;;;;78.10;37.92;;;;;;;;;;5030890;28;20171;-87
2021/12/11 08:58:34;;;;;;;70.60;34.85;;;;;;;;;;5018106;28;20086;-87
2021/12/11 09:01:18;;;;;;;72.30;36.33;;;;;;;;;;5028815;28;20029;-87
2021/12/11 09:03:50;;;;;;;76.68;36.75;;;;;;;;;;5028255;28;20469;-87
2021/12/11 09:06:21;;;;;;;73.70;35.65;;;;;;;;;;5028217;28;20374;-87
2021/12/11 09:08:46;;;;;;;78.63;38.25;;;;;;;;;;5009648;28;20048;-87
2021/12/11 09:11:32;;;;;;;71.43;37.05;;;;;;;;;;5009526;28;20030;-86
2021/12/11 09:14:00;;;;;;;72.10;36.60;;;;;;;;;;5009664;28;20048;-89
2021/12/11 09:16:25;;;;;;;68.28;34.17;;;;;;;;;;5012292;28;20041;-89
2021/12/11 09:19:01;;;;;;;75.15;37.85;;;;;;;;;;5011641;28;20029;-89
2021/12/11 09:21:31;;;;;;;72.38;35.35;;;;;;;;;;5012488;28;20148;-90
2021/12/11 09:24:04;;;;;;;74.63;34.87;;;;;;;;;;5012262;28;20021;-89
2021/12/11 09:26:48;;;;;;;69.50;34.88;;;;;;;;;;5012221;28;20116;-89
2021/12/11 09:29:23;;;;;;;68.72;34.92;;;;;;;;;;5011953;28;20076;-89
2021/12/11 09:31:52;;;;;;;70.88;34.72;;;;;;;;;;5012031;28;20021;-90
2021/12/11 09:34:20;;;;;;;73.15;34.75;;;;;;;;;;5029912;28;20032;-89
2021/12/11 09:36:47;;;;;;;67.78;35.17;;;;;;;;;;5011415;28;20029;-90
2021/12/11 09:39:15;;;;;;;72.95;35.17;;;;;;;;;;5014510;28;20028;-90
2021/12/11 09:41:40;;;;;;;84.35;37.72;;;;;;;;;;5015300;28;20109;-90
2021/12/11 09:44:16;;;;;;;73.50;35.25;;;;;;;;;;5015212;28;20116;-90
2021/12/11 09:46:47;;;;;;;73.30;35.75;;;;;;;;;;5015079;28;20095;-90
2021/12/11 09:49:14;;;;;;;74.68;36.00;;;;;;;;;;5032710;28;20028;-90
2021/12/11 09:51:45;;;;;;;63.75;33.95;;;;;;;;;;5015058;28;20041;-90
2021/12/11 09:54:13;;;;;;;69.68;34.58;;;;;;;;;;5015731;28;20424;-90
2021/12/11 09:56:49;;;;;;;72.38;36.67;;;;;;;;;;5012779;28;20022;-87
2021/12/11 09:59:16;;;;;;;73.00;33.55;;;;;;;;;;5011796;28;20043;-87
2021/12/11 10:01:43;;;;;;;61.47;31.17;;;;;;;;;;5029719;28;20025;-87
2021/12/11 10:04:22;;;;;;;62.83;32.40;;;;;;;;;;5029427;28;20025;-87
2021/12/11 10:07:34;;;;;;;82.32;35.63;;;;;;;;;;5011803;28;20083;-87
2021/12/11 10:09:41;;;;;;;62.97;32.70;;;;;;;;;;5021255;28;20048;-87
2021/12/11 10:12:26;;;;;;;64.97;33.28;;;;;;;;;;5030110;28;20083;-87
2021/12/11 10:14:54;;;;;;;62.67;32.15;;;;;;;;;;4997604;28;20049;-87
2021/12/11 10:17:22;;;;;;;65.78;33.45;;;;;;;;;;5012282;28;20009;-86
2021/12/11 10:19:48;;;;;;;60.42;32.53;;;;;;;;;;5029494;28;20057;-87
2021/12/11 10:22:19;;;;;;;83.30;37.10;;;;;;;;;;5011834;28;20028;-87
2021/12/11 10:24:45;;;;;;;64.00;31.73;;;;;;;;;;4995869;28;20485;-87
2021/12/11 10:27:11;;;;;;;62.53;31.60;;;;;;;;;;5029778;28;20040;-87
2021/12/11 10:29:36;;;;;;;58.83;32.15;;;;;;;;;;5011217;28;20432;-87
2021/12/11 10:32:05;;;;;;;55.38;30.83;;;;;;;;;;5030458;28;20025;-87
2021/12/11 10:34:33;;;;;;;57.22;30.83;;;;;;;;;;5012088;28;20035;-87
2021/12/11 10:37:00;;;;;;;56.78;30.17;;;;;;;;;;5031500;28;20026;-87
2021/12/11 10:39:26;;;;;;;60.50;30.98;;;;;;;;;;5037176;28;20492;-87
2021/12/11 10:41:51;;;;;;;63.45;34.28;;;;;;;;;;5010737;28;20025;-87
2021/12/11 10:44:19;;;;;;;60.78;32.47;;;;;;;;;;5031416;28;20076;-86
2021/12/11 10:46:50;;;;;;;54.92;30.50;;;;;;;;;;5011086;28;20032;-87
2021/12/11 10:49:16;;;;;;;51.67;29.05;;;;;;;;;;5010659;28;20026;-87
2021/12/11 10:51:44;;;;;;;51.83;29.67;;;;;;;;;;5021248;28;20024;-87
2021/12/11 10:54:10;;;;;;;53.17;29.35;;;;;;;;;;5031729;28;20104;-87
2021/12/11 10:56:37;;;;;;;49.30;27.00;;;;;;;;;;5030896;28;20866;-87
2021/12/11 10:59:25;;;;;;;50.38;28.30;;;;;;;;;;5024184;28;20017;-86
2021/12/11 11:01:53;;;;;;;44.90;24.55;;;;;;;;;;5024665;28;20037;-86
2021/12/11 11:04:21;;;;;;;53.35;26.80;;;;;;;;;;5028490;28;20079;-86
2021/12/11 11:06:46;;;;;;;50.22;26.98;;;;;;;;;;5029086;28;20037;-87
2021/12/11 11:09:12;;;;;;;49.20;25.88;;;;;;;;;;5028547;28;20029;-87
2021/12/11 11:11:38;;;;;;;46.80;25.67;;;;;;;;;;5010492;28;20152;-86
2021/12/11 11:14:04;;;;;;;48.53;26.95;;;;;;;;;;5010535;28;20108;-87
2021/12/11 11:16:30;;;;;;;45.08;23.85;;;;;;;;;;5028170;28;20017;-86
2021/12/11 11:18:56;;;;;;;43.58;24.83;;;;;;;;;;5028247;28;20506;-86
2021/12/11 11:21:26;;;;;;;40.35;24.88;;;;;;;;;;5027956;28;20120;-87
2021/12/11 11:23:52;;;;;;;42.55;23.63;;;;;;;;;;5010876;28;20373;-87
2021/12/11 11:26:21;;;;;;;36.00;23.08;;;;;;;;;;5010629;28;20021;-86
2021/12/11 11:28:46;;;;;;;41.08;22.88;;;;;;;;;;5011310;28;20021;-87
2021/12/11 11:31:16;;;;;;;40.10;23.27;;;;;;;;;;5029275;28;20080;-85
2021/12/11 11:33:42;;;;;;;42.15;24.05;;;;;;;;;;5031988;28;20033;-87
2021/12/11 11:36:09;;;;;;;37.25;22.45;;;;;;;;;;5031187;28;20039;-86
2021/12/11 11:38:36;;;;;;;36.83;21.98;;;;;;;;;;5032237;28;20096;-86
2021/12/11 11:41:06;;;;;;;37.72;22.38;;;;;;;;;;5031742;28;20072;-86
2021/12/11 11:43:31;;;;;;;41.00;22.05;;;;;;;;;;5029412;28;20108;-87
2021/12/11 11:45:57;;;;;;;38.35;22.35;;;;;;;;;;5011181;28;20112;-87
2021/12/11 11:48:27;;;;;;;34.70;21.65;;;;;;;;;;5009826;28;20079;-87
2021/12/11 11:50:53;;;;;;;33.45;20.30;;;;;;;;;;5028115;28;20076;-87
2021/12/11 11:53:24;;;;;;;32.35;18.98;;;;;;;;;;5027479;28;20040;-87
2021/12/11 11:55:51;;;;;;;32.10;18.40;;;;;;;;;;5009743;28;20031;-86
2021/12/11 11:58:17;;;;;;;32.45;16.65;;;;;;;;;;5027616;28;20036;-87
2021/12/11 12:00:45;;;;;;;28.58;17.50;;;;;;;;;;5009842;28;20041;-87
2021/12/11 12:03:11;;;;;;;32.80;16.75;;;;;;;;;;5010167;28;20473;-87
2021/12/11 12:05:38;;;;;;;27.48;15.05;;;;;;;;;;5028144;28;20548;-87
2021/12/11 12:08:05;;;;;;;24.73;14.52;;;;;;;;;;5028023;28;20515;-87
2021/12/11 12:10:30;;;;;;;24.77;15.35;;;;;;;;;;5027779;28;20647;-86
2021/12/11 12:12:55;;;;;;;20.47;13.63;;;;;;;;;;5027686;28;20100;-86
2021/12/11 12:15:24;;;;;;;24.60;14.98;;;;;;;;;;5010035;28;20270;-87
2021/12/11 12:17:49;;;;;;;23.90;13.98;;;;;;;;;;5027281;28;20495;-87
2021/12/11 12:20:15;;;;;;;22.73;13.13;;;;;;;;;;5009274;28;20053;-87
2021/12/11 12:22:41;;;;;;;24.45;13.38;;;;;;;;;;4993286;28;20429;-87
2021/12/11 12:25:07;;;;;;;23.08;13.63;;;;;;;;;;5009455;28;20461;-87
2021/12/11 12:27:33;;;;;;;21.10;14.40;;;;;;;;;;5009439;28;20032;-87
2021/12/11 12:30:00;;;;;;;26.42;14.73;;;;;;;;;;5009510;28;20021;-87
2021/12/11 12:32:27;;;;;;;23.00;14.60;;;;;;;;;;5009200;28;20022;-87
2021/12/11 12:34:54;;;;;;;21.98;14.35;;;;;;;;;;5027314;28;20100;-87
2021/12/11 12:37:19;;;;;;;21.42;13.35;;;;;;;;;;5009421;28;20025;-87
2021/12/11 12:39:47;;;;;;;23.13;14.40;;;;;;;;;;5028002;28;20044;-87
2021/12/11 12:42:18;;;;;;;23.52;12.95;;;;;;;;;;5009689;28;20549;-87
2021/12/11 12:44:46;;;;;;;22.27;13.57;;;;;;;;;;5009550;28;20065;-87
2021/12/11 12:47:14;;;;;;;23.63;13.40;;;;;;;;;;5009812;28;20025;-87
2021/12/11 12:49:41;;;;;;;25.50;15.30;;;;;;;;;;5008859;28;20087;-86
2021/12/11 12:52:10;;;;;;;20.75;14.40;;;;;;;;;;5009151;28;20026;-87
2021/12/11 12:54:35;;;;;;;20.55;13.25;;;;;;;;;;5009123;28;20018;-87
2021/12/11 12:57:11;;;;;;;22.33;14.25;;;;;;;;;;5009350;28;20837;-87
2021/12/11 12:59:37;;;;;;;24.98;14.70;;;;;;;;;;5026904;28;20112;-87
2021/12/11 13:02:05;;;;;;;20.05;12.95;;;;;;;;;;5026911;28;20056;-87
2021/12/11 13:04:38;;;;;;;25.33;15.02;;;;;;;;;;5009274;28;20033;-87
2021/12/11 13:07:05;;;;;;;20.85;12.60;;;;;;;;;;5026912;28;20021;-87
2021/12/11 13:09:40;;;;;;;24.52;14.07;;;;;;;;;;5026868;28;20117;-87
2021/12/11 13:12:09;;;;;;;24.50;14.95;;;;;;;;;;5009230;28;20112;-87
2021/12/11 13:14:35;;;;;;;17.63;12.30;;;;;;;;;;5030492;28;20029;-87
2021/12/11 13:17:03;;;;;;;19.38;13.50;;;;;;;;;;5013510;28;20047;-87
2021/12/11 13:19:32;;;;;;;18.02;12.60;;;;;;;;;;5012619;28;20107;-87
2021/12/11 13:22:03;;;;;;;20.35;12.60;;;;;;;;;;5012773;28;20029;-86
2021/12/11 13:24:29;;;;;;;23.48;13.20;;;;;;;;;;5030554;28;20056;-86
2021/12/11 13:26:56;;;;;;;21.08;13.30;;;;;;;;;;5030727;28;20033;-86
2021/12/11 13:29:23;;;;;;;21.33;14.07;;;;;;;;;;5012949;28;20107;-87
2021/12/11 13:31:51;;;;;;;20.95;13.80;;;;;;;;;;5013456;28;20025;-86
2021/12/11 13:34:17;;;;;;;22.13;13.32;;;;;;;;;;5030262;28;20128;-86
2021/12/11 13:36:42;;;;;;;23.05;12.45;;;;;;;;;;5012542;28;20120;-86
2021/12/11 13:39:10;;;;;;;21.00;12.25;;;;;;;;;;5030125;28;20731;-87
2021/12/11 13:41:41;;;;;;;20.55;12.25;;;;;;;;;;5012259;28;20035;-86
2021/12/11 13:44:07;;;;;;;20.42;12.07;;;;;;;;;;5012269;28;20025;-86
2021/12/11 13:46:32;;;;;;;24.05;12.88;;;;;;;;;;5012501;28;20796;-87
2021/12/11 13:48:57;;;;;;;18.80;11.48;;;;;;;;;;5031316;28;20076;-86
2021/12/11 13:51:24;;;;;;;21.42;12.68;;;;;;;;;;5014390;28;20432;-86
2021/12/11 13:53:51;;;;;;;19.17;12.90;;;;;;;;;;5032269;28;20472;-86
2021/12/11 13:56:19;;;;;;;23.92;12.50;;;;;;;;;;5032551;28;20025;-86
2021/12/11 13:58:45;;;;;;;24.60;15.52;;;;;;;;;;5014123;28;20025;-86
2021/12/11 14:01:24;;;;;;;18.58;12.27;;;;;;;;;;5032010;28;20065;-87
2021/12/11 14:03:49;;;;;;;18.92;12.98;;;;;;;;;;5031861;28;20028;-86
2021/12/11 14:06:15;;;;;;;19.25;13.10;;;;;;;;;;5032195;28;20021;-87
2021/12/11 14:08:41;;;;;;;21.40;12.63;;;;;;;;;;5031971;28;20568;-86
2021/12/11 14:11:07;;;;;;;19.58;12.18;;;;;;;;;;5032145;28;20021;-87
2021/12/11 14:13:33;;;;;;;20.23;12.32;;;;;;;;;;5014707;28;20439;-86
2021/12/11 14:15:58;;;;;;;17.48;12.02;;;;;;;;;;5014287;28;20029;-86
2021/12/11 14:18:24;;;;;;;14.95;11.88;;;;;;;;;;5032148;28;20026;-86
2021/12/11 14:20:50;;;;;;;20.90;13.18;;;;;;;;;;5014240;28;20489;-86
2021/12/11 14:23:19;;;;;;;20.33;14.48;;;;;;;;;;5031964;28;20021;-86
2021/12/11 14:25:44;;;;;;;21.08;13.25;;;;;;;;;;5030735;28;20025;-86
2021/12/11 14:28:11;;;;;;;21.90;13.25;;;;;;;;;;5031955;28;20496;-87
2021/12/11 14:30:38;;;;;;;18.98;12.15;;;;;;;;;;5013980;28;20037;-86
2021/12/11 14:33:03;;;;;;;19.73;12.55;;;;;;;;;;5031606;28;20477;-86